Time;durP1;ratioP1;P1;durP2;ratioP2;P2;SDS_P1;SDS_P2;PMS_P1;PMS_P2;Temp;Humidity;BMP_temperature;BMP_pressure;BME280_temperature;BME280_humidity;BME280_pressure;Samples;Min_cycle;Max_cycle;Signal;HPM_P1;HPM_P2
2024/01/22 00:02:16;;;;;;;;;6.00;5.75;;;;;10.27;100.00;101381.09;4993668;28;45277;-76
2024/01/22 00:04:41;;;;;;;;;6.25;5.00;;;;;10.35;100.00;101376.09;4993497;28;50486;-75
2024/01/22 00:07:07;;;;;;;;;5.00;4.00;;;;;10.44;100.00;101372.00;4977363;28;53198;-75
2024/01/22 00:09:32;;;;;;;;;5.00;4.00;;;;;10.35;100.00;101342.63;4997555;28;45394;-75
2024/01/22 00:11:57;;;;;;;;;6.00;4.75;;;;;10.37;100.00;101356.81;4980218;28;45488;-75
2024/01/22 00:14:23;;;;;;;;;7.00;4.00;;;;;10.44;100.00;101377.31;4998289;28;47770;-74
2024/01/22 00:16:48;;;;;;;;;8.75;3.25;;;;;10.40;100.00;101338.41;4997485;28;45677;-75
2024/01/22 00:19:13;;;;;;;;;4.00;4.00;;;;;10.41;100.00;101329.63;4997716;28;52722;-75
2024/01/22 00:21:42;;;;;;;;;3.33;3.00;;;;;10.61;100.00;101322.34;4994036;28;45337;-75
2024/01/22 00:24:08;;;;;;;;;5.00;5.00;;;;;10.48;100.00;101320.19;4987679;28;45397;-75
2024/01/22 00:26:34;;;;;;;;;3.00;3.00;;;;;10.47;100.00;101284.00;4994748;28;45290;-74
2024/01/22 00:28:59;;;;;;;;;5.00;3.00;;;;;10.52;100.00;101270.09;4987418;28;45343;-75
2024/01/22 00:31:24;;;;;;;;;4.25;3.25;;;;;10.66;100.00;101296.97;4980038;28;45318;-74
2024/01/22 00:33:50;;;;;;;;;3.00;3.00;;;;;10.41;100.00;101270.59;4990050;28;45489;-74
2024/01/22 00:36:15;;;;;;;;;5.75;4.00;;;;;10.61;100.00;101330.28;4997214;28;45368;-74
2024/01/22 00:38:41;;;;;;;;;3.75;3.50;;;;;10.48;100.00;101286.72;4991011;28;45417;-74
2024/01/22 00:41:07;;;;;;;;;3.67;3.00;;;;;10.46;100.00;101274.28;4995356;28;45336;-74
2024/01/22 00:43:32;;;;;;;;;3.00;3.00;;;;;10.63;100.00;101309.19;4992406;28;45329;-75
2024/01/22 00:45:58;;;;;;;;;2.00;2.00;;;;;10.51;100.00;101284.16;4979706;28;45632;-74
2024/01/22 00:48:23;;;;;;;;;3.00;3.00;;;;;10.57;100.00;101314.28;4993761;28;45252;-74
2024/01/22 00:50:49;;;;;;;;;3.33;3.00;;;;;10.42;100.00;101294.44;4996723;28;49931;-74
2024/01/22 00:53:14;;;;;;;;;2.67;2.67;;;;;10.53;100.00;101303.63;4994519;28;45469;-74
2024/01/22 00:55:39;;;;;;;;;3.00;3.00;;;;;10.38;100.00;101299.56;5001291;28;45413;-74
2024/01/22 00:58:05;;;;;;;;;2.00;2.00;;;;;10.43;100.00;101290.94;4998794;28;45329;-75
2024/01/22 01:00:30;;;;;;;;;1.33;1.33;;;;;10.44;100.00;101307.69;5001718;28;45335;-74
2024/01/22 01:02:55;;;;;;;;;4.75;2.00;;;;;10.58;100.00;101314.31;4974117;28;47383;-74
2024/01/22 01:05:21;;;;;;;;;2.67;2.67;;;;;10.44;100.00;101305.94;5001117;28;45675;-74
2024/01/22 01:07:46;;;;;;;;;3.00;2.00;;;;;10.59;100.00;101334.66;5000491;28;46403;-75
2024/01/22 01:10:11;;;;;;;;;1.00;1.00;;;;;10.67;100.00;101343.72;4983491;28;45331;-74
2024/01/22 01:12:37;;;;;;;;;2.50;2.50;;;;;10.63;100.00;101330.34;4994053;28;45664;-74
2024/01/22 01:15:04;;;;;;;;;2.00;2.00;;;;;10.52;100.00;101280.66;5001337;28;45510;-75
2024/01/22 01:17:30;;;;;;;;;2.00;2.00;;;;;10.57;100.00;101293.13;4996148;28;45664;-75
2024/01/22 01:19:55;;;;;;;;;3.00;3.00;;;;;10.71;100.00;101303.31;4990596;28;45275;-75
2024/01/22 01:22:20;;;;;;;;;2.00;2.00;;;;;10.74;100.00;101286.63;5000594;28;45619;-75
2024/01/22 01:24:45;;;;;;;;;3.00;2.00;;;;;10.77;100.00;101302.59;4990410;28;56788;-74
2024/01/22 01:27:11;;;;;;;;;2.00;2.00;;;;;10.59;100.00;101275.59;5000214;28;56572;-74
2024/01/22 01:29:38;;;;;;;;;0.00;0.00;;;;;10.82;100.00;101277.19;4982982;28;45251;-74
2024/01/22 01:32:05;;;;;;;;;1.00;1.00;;;;;10.79;100.00;101263.88;4999638;28;45410;-74
2024/01/22 01:34:30;;;;;;;;;3.00;2.33;;;;;10.91;100.00;101252.78;4993207;28;45609;-74
2024/01/22 01:36:55;;;;;;;;;2.33;2.33;;;;;10.95;100.00;101259.94;4981762;28;49707;-74
2024/01/22 01:39:20;;;;;;;;;2.00;2.00;;;;;10.78;100.00;101211.84;4994548;28;45350;-74
2024/01/22 01:41:49;;;;;;;;;3.00;2.00;;;;;10.91;100.00;101242.19;5000548;28;45326;-74
2024/01/22 01:44:15;;;;;;;;;2.00;2.00;;;;;10.96;100.00;101259.09;4995621;28;45270;-74
2024/01/22 01:46:40;;;;;;;;;3.00;3.00;;;;;10.97;100.00;101268.81;5000334;28;45412;-74
2024/01/22 01:49:06;;;;;;;;;7.00;4.00;;;;;10.84;100.00;101253.44;4996602;28;45245;-74
2024/01/22 01:51:32;;;;;;;;;4.00;4.00;;;;;10.83;100.00;101236.66;5000121;28;44841;-74
2024/01/22 01:53:58;;;;;;;;;1.67;1.33;;;;;11.00;100.00;101254.78;4997751;28;45519;-74
2024/01/22 01:56:24;;;;;;;;;3.00;2.00;;;;;10.96;100.00;101240.59;5000242;28;45416;-74
2024/01/22 01:58:50;;;;;;;;;3.67;2.00;;;;;11.03;100.00;101242.56;4991701;28;45231;-74
2024/01/22 02:01:16;;;;;;;;;3.33;2.33;;;;;11.14;100.00;101240.22;5000336;28;45484;-74
2024/01/22 02:03:41;;;;;;;;;5.00;3.00;;;;;10.93;100.00;101220.22;4991137;28;51876;-75
2024/01/22 02:06:07;;;;;;;;;2.00;2.00;;;;;11.09;100.00;101236.53;4979693;28;46945;-74
2024/01/22 02:08:32;;;;;;;;;2.67;1.67;;;;;11.17;100.00;101241.22;5000189;28;45254;-74
2024/01/22 02:10:57;;;;;;;;;2.67;2.67;;;;;11.06;100.00;101231.16;5000090;28;45469;-74
2024/01/22 02:13:25;;;;;;;;;4.00;2.00;;;;;10.67;100.00;101158.66;4999573;28;56480;-74
2024/01/22 02:15:50;;;;;;;;;3.00;3.00;;;;;11.30;100.00;101253.03;5000996;28;45673;-74
2024/01/22 02:18:15;;;;;;;;;1.00;1.00;;;;;10.82;100.00;101152.91;4995743;28;45239;-74
2024/01/22 02:20:41;;;;;;;;;1.67;1.67;;;;;11.21;100.00;101226.34;4982713;28;45245;-74
2024/01/22 02:23:07;;;;;;;;;2.00;1.33;;;;;11.41;100.00;101248.06;4999072;28;54481;-73
2024/01/22 02:25:32;;;;;;;;;1.33;0.33;;;;;11.18;100.00;101202.44;5000343;28;46175;-74
2024/01/22 02:27:58;;;;;;;;;2.00;2.00;;;;;11.42;100.00;101234.84;4999498;28;44898;-74
2024/01/22 02:30:24;;;;;;;;;4.00;2.00;;;;;11.49;100.00;101246.53;5000616;28;45258;-74
2024/01/22 02:32:50;;;;;;;;;2.00;2.00;;;;;11.48;100.00;101201.47;4998710;28;45665;-74
2024/01/22 02:35:15;;;;;;;;;2.00;2.00;;;;;11.39;100.00;101175.66;4999871;28;45534;-74
2024/01/22 02:37:41;;;;;;;;;1.00;1.00;;;;;11.53;100.00;101221.91;4999231;28;44811;-74
2024/01/22 02:40:07;;;;;;;;;2.67;2.67;;;;;11.62;100.00;101208.94;4982300;28;45362;-74
2024/01/22 02:42:33;;;;;;;;;1.67;1.00;;;;;11.57;100.00;101193.78;4999374;28;45455;-74
2024/01/22 02:44:59;;;;;;;;;2.00;2.00;;;;;11.52;100.00;101171.59;4997457;28;46059;-74
2024/01/22 02:47:24;;;;;;;;;1.67;1.00;;;;;11.67;100.00;101201.09;4999320;28;45439;-74
2024/01/22 02:49:49;;;;;;;;;1.00;1.00;;;;;11.46;100.00;101156.44;4998583;28;45353;-74
2024/01/22 02:52:15;;;;;;;;;2.33;2.00;;;;;11.47;100.00;101166.16;4998952;28;45454;-74
2024/01/22 02:54:40;;;;;;;;;1.67;1.33;;;;;11.42;100.00;101163.38;4998523;28;45432;-74
2024/01/22 02:57:05;;;;;;;;;1.00;1.00;;;;;11.32;100.00;101134.00;4999314;28;45219;-75
2024/01/22 02:59:31;;;;;;;;;2.33;2.33;;;;;11.50;100.00;101171.53;4999775;28;45221;-75
2024/01/22 03:01:56;;;;;;;;;3.00;1.67;;;;;11.44;100.00;101179.31;4997716;28;45450;-74
2024/01/22 03:04:21;;;;;;;;;1.00;1.00;;;;;11.24;100.00;101128.50;4976024;28;61091;-75
2024/01/22 03:06:47;;;;;;;;;1.00;1.00;;;;;11.44;100.00;101168.75;4998053;28;50700;-74
2024/01/22 03:09:12;;;;;;;;;1.00;1.00;;;;;11.13;100.00;101122.91;4993310;28;48732;-74
2024/01/22 03:11:37;;;;;;;;;1.67;1.67;;;;;11.44;100.00;101160.78;4998956;28;45541;-74
2024/01/22 03:14:02;;;;;;;;;0.33;0.33;;;;;11.45;100.00;101159.94;4999089;28;45487;-74
2024/01/22 03:16:28;;;;;;;;;1.00;1.00;;;;;11.23;100.00;101134.66;4999606;28;45681;-74
2024/01/22 03:18:54;;;;;;;;;2.00;1.00;;;;;10.90;100.00;101065.88;4988666;28;45165;-75
2024/01/22 03:21:19;;;;;;;;;2.33;1.67;;;;;11.35;100.00;101161.44;4998352;28;45220;-74
2024/01/22 03:23:44;;;;;;;;;1.33;1.33;;;;;11.36;100.00;101135.88;4998908;28;59094;-74
2024/01/22 03:26:20;;;;;;;;;1.00;1.00;;;;;11.32;100.00;101136.66;4998667;28;45528;-75
2024/01/22 03:28:47;;;;;;;;;5.00;1.00;;;;;11.34;100.00;101127.00;4978380;28;45426;-75
2024/01/22 03:31:26;;;;;;;;;0.00;0.00;;;;;11.33;100.00;101127.84;4998182;28;45526;-74
2024/01/22 03:33:55;;;;;;;;;2.00;2.00;;;;;11.31;100.00;101138.38;4995579;28;46898;-74
2024/01/22 03:36:22;;;;;;;;;1.00;1.00;;;;;11.29;100.00;101141.88;4999772;28;45492;-74
2024/01/22 03:38:48;;;;;;;;;2.00;1.00;;;;;11.16;100.00;101136.22;5001011;28;45435;-74
2024/01/22 03:41:13;;;;;;;;;1.00;1.00;;;;;11.19;100.00;101146.91;5000310;28;45329;-74
2024/01/22 03:43:42;;;;;;;;;4.00;2.33;;;;;11.03;100.00;101091.75;5001151;28;45338;-74
2024/01/22 03:46:07;;;;;;;;;2.33;2.00;;;;;11.16;100.00;101106.25;5000066;28;45314;-74
2024/01/22 03:48:33;;;;;;;;;2.67;2.00;;;;;11.12;100.00;101105.28;4999320;28;45282;-75
2024/01/22 03:50:58;;;;;;;;;2.00;2.00;;;;;11.03;100.00;101080.28;4998216;28;45910;-74
2024/01/22 03:53:23;;;;;;;;;2.67;2.00;;;;;11.13;100.00;101106.16;4998644;28;55937;-74
2024/01/22 03:55:49;;;;;;;;;1.33;1.33;;;;;11.20;100.00;101106.38;4998529;28;45175;-74
2024/01/22 03:58:14;;;;;;;;;2.00;2.00;;;;;11.19;100.00;101127.47;4977961;28;45312;-75
2024/01/22 04:00:39;;;;;;;;;1.00;1.00;;;;;11.03;100.00;101082.94;4998744;28;49257;-74
2024/01/22 04:03:05;;;;;;;;;2.00;2.00;;;;;10.94;100.00;101065.97;4997694;28;64512;-74
2024/01/22 04:05:31;;;;;;;;;2.00;0.00;;;;;11.10;100.00;101084.91;4998719;28;45421;-74
2024/01/22 04:07:57;;;;;;;;;1.33;1.33;;;;;11.31;100.00;101121.63;4997361;28;45309;-74
2024/01/22 04:10:23;;;;;;;;;1.33;1.00;;;;;11.23;100.00;101108.22;4998785;28;45619;-74
2024/01/22 04:12:48;;;;;;;;;1.00;1.00;;;;;11.16;100.00;101096.53;4998156;28;45398;-74
2024/01/22 04:15:13;;;;;;;;;1.00;1.00;;;;;11.10;100.00;101076.97;5001791;28;45431;-74
2024/01/22 04:17:39;;;;;;;;;0.67;0.67;;;;;11.13;100.00;101075.28;4993739;28;45424;-74
2024/01/22 04:20:06;;;;;;;;;2.00;2.00;;;;;11.21;100.00;101088.75;4990031;28;45346;-74
2024/01/22 04:22:32;;;;;;;;;3.67;2.00;;;;;11.20;100.00;101082.56;4993625;28;45276;-74
2024/01/22 04:24:57;;;;;;;;;5.00;1.00;;;;;11.29;100.00;101103.06;4980504;28;45305;-74
2024/01/22 04:27:22;;;;;;;;;1.00;1.00;;;;;11.18;100.00;101071.03;4980385;28;45337;-75
2024/01/22 04:29:47;;;;;;;;;2.67;1.33;;;;;11.12;100.00;101057.66;4995203;28;52267;-74
2024/01/22 04:32:13;;;;;;;;;1.33;1.33;;;;;11.37;100.00;101093.56;4999662;28;63114;-74
2024/01/22 04:34:39;;;;;;;;;2.33;1.00;;;;;11.29;100.00;101091.59;4996895;28;55064;-74
2024/01/22 04:37:05;;;;;;;;;3.00;2.00;;;;;11.41;100.00;101103.38;5000959;28;45241;-74
2024/01/22 04:39:31;;;;;;;;;1.00;1.00;;;;;11.40;100.00;101087.47;4998245;28;45289;-74
2024/01/22 04:41:56;;;;;;;;;2.00;2.00;;;;;11.23;100.00;101050.00;5001112;28;46002;-74
2024/01/22 04:44:21;;;;;;;;;3.00;1.00;;;;;11.50;100.00;101080.66;4999201;28;45309;-74
2024/01/22 04:46:47;;;;;;;;;1.00;1.00;;;;;11.48;100.00;101083.25;5001604;28;45459;-74
2024/01/22 04:49:12;;;;;;;;;1.00;1.00;;;;;11.57;100.00;101095.84;4999987;28;45350;-74
2024/01/22 04:51:41;;;;;;;;;2.33;2.00;;;;;11.57;100.00;101086.13;5000828;28;45464;-74
2024/01/22 04:54:06;;;;;;;;;1.00;1.00;;;;;11.43;100.00;101053.13;5001102;28;45435;-74
2024/01/22 04:56:32;;;;;;;;;2.00;1.33;;;;;11.55;100.00;101100.19;4982836;28;54677;-74
2024/01/22 04:58:57;;;;;;;;;1.00;1.00;;;;;11.45;100.00;101053.16;4993389;28;45228;-75
2024/01/22 05:01:22;;;;;;;;;2.00;2.00;;;;;11.46;100.00;101045.28;5000954;28;45617;-74
2024/01/22 05:03:48;;;;;;;;;2.67;1.00;;;;;11.62;100.00;101086.22;4994545;28;50042;-74
2024/01/22 05:06:13;;;;;;;;;0.00;0.00;;;;;11.46;100.00;101039.97;5000623;28;45160;-74
2024/01/22 05:08:40;;;;;;;;;1.00;1.00;;;;;11.57;100.00;101043.78;5001340;28;45699;-75
2024/01/22 05:11:05;;;;;;;;;1.00;1.00;;;;;11.35;100.00;101015.00;5000760;28;45301;-74
2024/01/22 05:13:31;;;;;;;;;2.00;0.67;;;;;11.49;100.00;101017.97;4996115;28;44816;-74
2024/01/22 05:15:56;;;;;;;;;2.67;0.00;;;;;11.60;100.00;101032.38;5004026;28;45550;-74
2024/01/22 05:18:22;;;;;;;;;0.33;0.33;;;;;11.59;100.00;101031.44;4992852;28;45409;-74
2024/01/22 05:20:47;;;;;;;;;2.00;1.00;;;;;11.65;100.00;101058.09;4996434;28;46441;-74
2024/01/22 05:23:14;;;;;;;;;1.00;1.00;;;;;11.68;100.00;101032.53;4997560;28;45416;-74
2024/01/22 05:25:39;;;;;;;;;1.33;0.00;;;;;11.61;100.00;101031.50;4997070;28;45400;-74
2024/01/22 05:28:05;;;;;;;;;1.00;1.00;;;;;11.61;100.00;101024.44;4998733;28;55717;-74
2024/01/22 05:30:30;;;;;;;;;1.00;1.00;;;;;11.50;100.00;101009.16;4996604;28;45465;-75
2024/01/22 05:32:56;;;;;;;;;1.00;1.00;;;;;11.56;100.00;101012.84;4996789;28;45980;-75
2024/01/22 05:35:21;;;;;;;;;2.00;0.67;;;;;11.78;100.00;101053.06;4978426;28;45419;-74
2024/01/22 05:37:48;;;;;;;;;0.33;0.33;;;;;11.71;100.00;101035.28;5000337;28;45179;-74
2024/01/22 05:40:14;;;;;;;;;0.00;0.00;;;;;11.80;100.00;101038.13;4996045;28;45342;-75
2024/01/22 05:42:39;;;;;;;;;1.00;1.00;;;;;11.77;100.00;101044.25;5000691;28;45420;-75
2024/01/22 05:45:06;;;;;;;;;2.33;0.67;;;;;11.75;100.00;101031.81;5001224;28;45489;-74
2024/01/22 05:47:31;;;;;;;;;2.00;1.00;;;;;11.82;100.00;101041.72;5000438;28;45403;-74
2024/01/22 05:49:56;;;;;;;;;0.33;0.33;;;;;11.68;100.00;101017.56;4998205;28;45404;-73
2024/01/22 05:52:22;;;;;;;;;2.00;0.00;;;;;11.78;100.00;101037.19;4992078;28;45376;-73
2024/01/22 05:54:47;;;;;;;;;2.00;0.00;;;;;11.69;100.00;101011.38;4988580;28;45334;-73
2024/01/22 05:57:12;;;;;;;;;0.00;0.00;;;;;11.73;100.00;101030.88;4992967;28;45353;-73
2024/01/22 05:59:39;;;;;;;;;0.33;0.33;;;;;11.67;100.00;101010.44;4987315;28;46225;-73
2024/01/22 06:02:05;;;;;;;;;1.00;1.00;;;;;11.79;100.00;101028.38;4979394;28;46052;-73
2024/01/22 06:04:31;;;;;;;;;0.67;0.00;;;;;11.78;100.00;101016.88;5000796;28;45249;-73
2024/01/22 06:06:56;;;;;;;;;1.00;1.00;;;;;11.68;100.00;100995.44;4999106;28;45420;-74
2024/01/22 06:09:21;;;;;;;;;1.00;0.00;;;;;11.84;100.00;101045.28;5000146;28;61621;-73
2024/01/22 06:11:47;;;;;;;;;0.00;0.00;;;;;11.68;100.00;101011.34;4999934;28;45185;-73
2024/01/22 06:14:12;;;;;;;;;2.33;1.00;;;;;11.70;100.00;100986.69;5000541;28;45235;-73
2024/01/22 06:16:37;;;;;;;;;1.00;1.00;;;;;11.85;100.00;101028.53;4999067;28;55124;-73
2024/01/22 06:19:03;;;;;;;;;3.00;1.00;;;;;11.77;100.00;101016.88;4989975;28;45413;-74
2024/01/22 06:21:28;;;;;;;;;0.33;0.33;;;;;11.66;100.00;101006.03;4996077;28;45413;-73
2024/01/22 06:23:53;;;;;;;;;0.33;0.00;;;;;11.75;100.00;101027.41;4989798;28;45368;-73
2024/01/22 06:26:19;;;;;;;;;0.00;0.00;;;;;11.80;100.00;101027.53;4996948;28;45380;-72
2024/01/22 06:28:47;;;;;;;;;1.67;1.67;;;;;11.64;100.00;101003.31;4993408;28;45568;-72
2024/01/22 06:31:13;;;;;;;;;0.33;0.33;;;;;11.64;100.00;100995.38;4996186;28;45659;-73
2024/01/22 06:33:38;;;;;;;;;0.67;0.67;;;;;11.72;100.00;101002.63;4993765;28;45358;-72
2024/01/22 06:36:04;;;;;;;;;0.67;0.67;;;;;11.70;100.00;101020.22;4994239;28;45560;-73
2024/01/22 06:38:29;;;;;;;;;1.00;1.00;;;;;11.78;100.00;101026.59;4994018;28;45894;-74
2024/01/22 06:40:54;;;;;;;;;1.00;1.00;;;;;11.68;100.00;101012.25;4999371;28;45321;-73
2024/01/22 06:43:19;;;;;;;;;1.67;1.67;;;;;11.67;100.00;101007.81;4995324;28;45321;-73
2024/01/22 06:45:45;;;;;;;;;0.00;0.00;;;;;11.37;100.00;100968.25;4982053;28;47451;-73
2024/01/22 06:48:11;;;;;;;;;1.00;1.00;;;;;11.59;100.00;101009.38;4997265;28;45298;-73
2024/01/22 06:50:37;;;;;;;;;1.00;1.00;;;;;11.65;100.00;101028.97;4998331;28;45168;-73
2024/01/22 06:53:03;;;;;;;;;0.00;0.00;;;;;11.40;100.00;100979.84;4996367;28;45317;-73
2024/01/22 06:55:29;;;;;;;;;1.00;1.00;;;;;11.36;100.00;100988.53;4996627;28;45231;-73
2024/01/22 06:57:54;;;;;;;;;2.67;1.00;;;;;11.40;100.00;100997.47;4989837;28;46700;-73
2024/01/22 07:00:20;;;;;;;;;1.67;0.67;;;;;11.35;100.00;101001.75;4996357;28;45239;-73
2024/01/22 07:02:48;;;;;;;;;1.00;0.00;;;;;11.52;100.00;101040.13;4979009;28;45429;-73
2024/01/22 07:05:14;;;;;;;;;0.00;0.00;;;;;11.48;100.00;101030.28;4981487;28;45370;-73
2024/01/22 07:07:39;;;;;;;;;1.00;1.00;;;;;11.41;100.00;101015.13;4997185;28;46425;-73
2024/01/22 07:10:07;;;;;;;;;0.67;0.67;;;;;11.50;100.00;101052.41;4994545;28;45296;-73
2024/01/22 07:12:33;;;;;;;;;1.00;1.00;;;;;11.29;100.00;100997.22;4997639;28;45298;-73
2024/01/22 07:15:00;;;;;;;;;0.00;0.00;;;;;11.30;100.00;100999.00;4972478;28;45577;-73
2024/01/22 07:17:25;;;;;;;;;1.00;1.00;;;;;11.39;100.00;101016.84;4993931;28;45348;-74
2024/01/22 07:19:51;;;;;;;;;1.00;1.00;;;;;11.40;100.00;101034.53;4996563;28;45496;-75
2024/01/22 07:22:17;;;;;;;;;1.33;1.33;;;;;11.28;100.00;101007.75;4996659;28;48105;-73
2024/01/22 07:24:42;;;;;;;;;3.33;1.00;;;;;11.42;100.00;101023.09;4996007;28;45467;-74
2024/01/22 07:27:08;;;;;;;;;1.67;1.00;;;;;11.23;100.00;101007.66;4998634;28;45553;-74
2024/01/22 07:29:36;;;;;;;;;1.00;1.00;;;;;11.26;100.00;101017.38;4994166;28;45353;-75
2024/01/22 07:32:01;;;;;;;;;1.00;1.00;;;;;11.15;100.00;100999.53;4996305;28;44835;-75
2024/01/22 07:34:27;;;;;;;;;0.00;0.00;;;;;11.17;100.00;101016.34;4992927;28;45264;-74
2024/01/22 07:36:52;;;;;;;;;2.00;1.00;;;;;11.28;100.00;101023.63;4993805;28;45264;-74
2024/01/22 07:39:18;;;;;;;;;1.00;1.00;;;;;11.24;100.00;101021.78;4991485;28;45415;-74
2024/01/22 07:41:43;;;;;;;;;2.00;2.00;;;;;11.39;100.00;101054.78;4994447;28;45267;-75
2024/01/22 07:44:09;;;;;;;;;2.00;1.00;;;;;11.41;100.00;101050.44;4991420;28;51357;-75
2024/01/22 07:46:34;;;;;;;;;2.00;0.67;;;;;11.19;100.00;101006.66;4996283;28;45987;-74
2024/01/22 07:49:00;;;;;;;;;1.33;1.33;;;;;11.35;100.00;101026.47;4989814;28;55881;-73
2024/01/22 07:51:25;;;;;;;;;1.00;1.00;;;;;11.48;100.00;101051.47;4994421;28;45378;-77
2024/01/22 07:53:50;;;;;;;;;2.67;1.00;;;;;11.45;100.00;101042.56;4988407;28;45648;-78
2024/01/22 07:56:16;;;;;;;;;1.00;1.00;;;;;11.46;100.00;101052.31;4987168;28;46403;-77
2024/01/22 07:58:42;;;;;;;;;2.33;1.33;;;;;11.52;100.00;101060.41;4996022;28;45298;-76
2024/01/22 08:01:07;;;;;;;;;1.00;1.00;;;;;11.64;100.00;101073.94;4985937;28;45401;-77
2024/01/22 08:03:33;;;;;;;;;1.00;1.00;;;;;11.71;100.00;101082.94;4997098;28;45379;-77
2024/01/22 08:05:58;;;;;;;;;2.00;2.00;;;;;11.48;100.00;101054.13;4987653;28;45491;-77
2024/01/22 08:08:30;;;;;;;;;1.00;1.00;;;;;11.75;100.00;101095.38;4996602;28;45306;-75
2024/01/22 08:10:56;;;;;;;;;1.00;1.00;;;;;11.59;100.00;101052.63;4975407;28;45502;-74
2024/01/22 08:13:22;;;;;;;;;3.00;1.00;;;;;11.71;100.00;101080.28;4998851;28;45309;-74
2024/01/22 08:15:48;;;;;;;;;1.33;1.00;;;;;11.70;100.00;101082.03;4972619;28;45610;-75
2024/01/22 08:18:14;;;;;;;;;1.33;1.33;;;;;11.79;100.00;101116.69;5001733;28;45308;-75
2024/01/22 08:20:40;;;;;;;;;3.00;2.00;;;;;11.89;100.00;101154.91;4984729;28;45323;-76
2024/01/22 08:23:06;;;;;;;;;2.00;2.00;;;;;11.80;100.00;101141.41;5001155;28;45331;-76
2024/01/22 08:25:32;;;;;;;;;0.67;0.67;;;;;11.78;100.00;101164.31;5002068;28;45243;-76
2024/01/22 08:27:58;;;;;;;;;1.00;1.00;;;;;11.63;100.00;101148.94;4999609;28;45461;-76
2024/01/22 08:30:24;;;;;;;;;1.00;1.00;;;;;11.89;100.00;101192.00;4998139;28;45407;-76
2024/01/22 08:32:51;;;;;;;;;1.33;1.33;;;;;11.79;100.00;101171.38;4982897;28;46950;-76
2024/01/22 08:35:17;;;;;;;;;2.00;0.00;;;;;11.82;100.00;101195.34;4993238;28;45503;-76
2024/01/22 08:37:47;;;;;;;;;0.67;0.67;;;;;11.79;100.00;101190.84;4999467;28;45353;-75
2024/01/22 08:40:16;;;;;;;;;1.33;0.67;;;;;11.63;100.00;101149.81;4998274;28;45271;-75
2024/01/22 08:42:43;;;;;;;;;1.00;1.00;;;;;11.91;100.00;101200.88;4980032;28;45930;-75
2024/01/22 08:45:08;;;;;;;;;4.33;1.33;;;;;11.89;100.00;101191.09;4997868;28;45706;-75
2024/01/22 08:47:34;;;;;;;;;0.00;0.00;;;;;11.79;100.00;101176.69;4974463;28;45397;-75
2024/01/22 08:49:59;;;;;;;;;3.00;1.00;;;;;11.88;100.00;101182.28;4992288;28;45329;-75
2024/01/22 08:52:24;;;;;;;;;2.33;2.00;;;;;11.77;100.00;101168.72;4994889;28;54972;-75
2024/01/22 08:54:50;;;;;;;;;3.67;2.00;;;;;11.89;100.00;101196.41;4980495;28;55640;-75
2024/01/22 08:57:16;;;;;;;;;0.00;0.00;;;;;11.97;100.00;101194.84;4993514;28;45326;-75
2024/01/22 08:59:42;;;;;;;;;0.67;0.67;;;;;11.79;100.00;101177.59;4976470;28;45501;-76
2024/01/22 09:02:07;;;;;;;;;2.67;1.00;;;;;11.83;100.00;101186.53;4993907;28;45313;-76
2024/01/22 09:04:32;;;;;;;;;1.33;1.33;;;;;11.71;100.00;101141.19;5001338;28;56571;-76
2024/01/22 09:06:57;;;;;;;;;2.00;0.00;;;;;12.00;100.00;101200.22;4998853;28;60878;-76
2024/01/22 09:09:23;;;;;;;;;1.67;0.67;;;;;12.07;100.00;101228.63;5001957;28;45200;-76
2024/01/22 09:11:49;;;;;;;;;2.33;0.67;;;;;11.74;100.00;101165.09;5000580;28;56791;-76
2024/01/22 09:14:14;;;;;;;;;1.00;1.00;;;;;11.74;100.00;101176.59;5000741;28;46381;-76
2024/01/22 09:16:39;;;;;;;;;5.67;2.00;;;;;11.80;100.00;101197.03;4983747;28;52503;-76
2024/01/22 09:19:05;;;;;;;;;2.00;1.00;;;;;11.81;100.00;101198.81;5001307;28;47221;-76
2024/01/22 09:21:30;;;;;;;;;1.00;1.00;;;;;12.00;100.00;101232.00;5000433;28;45489;-75
2024/01/22 09:23:55;;;;;;;;;2.33;1.00;;;;;11.89;100.00;101202.59;5001328;28;45621;-75
2024/01/22 09:26:21;;;;;;;;;0.67;0.00;;;;;12.02;100.00;101211.75;4999963;28;57476;-75
2024/01/22 09:28:48;;;;;;;;;1.00;1.00;;;;;12.13;100.00;101227.91;4983416;28;45326;-75
2024/01/22 09:31:13;;;;;;;;;2.00;2.00;;;;;12.22;100.00;101225.50;4982954;28;47147;-75
2024/01/22 09:33:38;;;;;;;;;4.33;3.00;;;;;12.28;100.00;101229.19;5000966;28;45026;-75
2024/01/22 09:36:04;;;;;;;;;2.67;2.67;;;;;12.43;100.00;101239.25;4999883;28;54268;-75
2024/01/22 09:38:29;;;;;;;;;5.33;4.00;;;;;12.35;100.00;101224.03;5000139;28;45279;-75
2024/01/22 09:40:55;;;;;;;;;2.00;2.00;;;;;12.42;100.00;101231.28;4998144;28;45325;-75
2024/01/22 09:43:20;;;;;;;;;1.67;1.67;;;;;12.46;100.00;101233.13;4999794;28;46512;-75
2024/01/22 09:45:47;;;;;;;;;2.00;1.00;;;;;12.67;100.00;101275.19;4980748;28;45385;-74
2024/01/22 09:48:13;;;;;;;;;6.00;1.00;;;;;12.73;100.00;101275.31;4998264;28;45325;-75
2024/01/22 09:50:39;;;;;;;;;1.00;1.00;;;;;12.60;100.00;101252.91;4996926;28;46293;-75
2024/01/22 09:53:12;;;;;;;;;4.00;2.00;;;;;12.76;100.00;101278.03;4982226;28;46975;-75
2024/01/22 09:55:39;;;;;;;;;3.00;2.00;;;;;12.67;100.00;101244.25;4996024;28;45230;-77
2024/01/22 09:58:08;;;;;;;;;3.33;1.33;;;;;12.67;100.00;101241.59;4979869;28;45634;-76
2024/01/22 10:00:34;;;;;;;;;3.00;1.67;;;;;12.74;100.00;101255.88;4984155;28;45267;-74
2024/01/22 10:03:00;;;;;;;;;2.67;2.00;;;;;12.79;100.00;101264.84;4995168;28;45534;-74
2024/01/22 10:05:26;;;;;;;;;6.00;3.00;;;;;12.73;100.00;101248.78;4983957;28;45249;-75
2024/01/22 10:07:51;;;;;;;;;7.00;4.00;;;;;12.60;100.00;101231.69;4992451;28;45395;-75
2024/01/22 10:10:20;;;;;;;;;5.00;5.00;;;;;12.83;100.00;101281.75;4972772;28;45725;-75
2024/01/22 10:13:05;;;;;;;;;3.33;2.00;;;;;12.65;100.00;101283.09;4999625;28;45357;-75
2024/01/22 10:15:32;;;;;;;;;3.00;2.00;;;;;12.58;100.00;101286.47;4984240;28;45301;-76
2024/01/22 10:18:14;;;;;;;;;1.67;1.67;;;;;12.57;100.00;101310.28;4994735;28;45415;-76
2024/01/22 10:20:41;;;;;;;;;5.67;1.67;;;;;12.41;100.00;101307.28;4991746;28;45287;-76
2024/01/22 10:23:07;;;;;;;;;4.33;2.00;;;;;12.05;100.00;101280.72;4975116;28;45757;-78
2024/01/22 10:25:33;;;;;;;;;0.00;0.00;;;;;12.08;100.00;101310.84;4995001;28;44775;-79
2024/01/22 10:28:14;;;;;;;;;3.00;1.00;;;;;12.05;100.00;101326.66;4993547;28;45450;-77
2024/01/22 10:30:41;;;;;;;;;1.00;0.67;;;;;11.85;100.00;101311.97;4998363;28;45416;-78
2024/01/22 10:33:12;;;;;;;;;6.33;2.00;;;;;11.74;100.00;101316.06;4996464;28;45384;-76
2024/01/22 10:35:37;;;;;;;;;3.00;3.00;;;;;11.81;100.00;101336.56;4994572;28;45277;-78
2024/01/22 10:38:10;;;;;;;;;5.67;2.00;;;;;11.77;100.00;101334.69;4975724;28;45290;-77
2024/01/22 10:40:36;;;;;;;;;5.00;2.67;;;;;11.75;100.00;101339.91;4989273;28;45440;-76
2024/01/22 10:43:23;;;;;;;;;3.00;2.00;;;;;11.76;100.00;101331.16;4996048;28;45410;-76
2024/01/22 10:45:50;;;;;;;;;5.00;3.00;;;;;11.76;100.00;101343.47;4990676;28;45182;-75
2024/01/22 10:48:22;;;;;;;;;3.33;3.00;;;;;11.61;100.00;101323.63;4976300;28;45400;-76
2024/01/22 10:50:48;;;;;;;;;4.00;2.00;;;;;11.60;100.00;101316.56;4986870;28;45243;-76
2024/01/22 10:53:16;;;;;;;;;3.67;1.00;;;;;11.61;100.00;101323.63;4980949;28;46958;-74
2024/01/22 10:55:52;;;;;;;;;7.00;4.67;;;;;11.74;100.00;101337.25;4982477;28;45396;-75
2024/01/22 10:58:24;;;;;;;;;3.67;2.67;;;;;11.67;100.00;101329.97;4996954;28;45432;-75
2024/01/22 11:00:51;;;;;;;;;10.67;9.33;;;;;11.65;100.00;101322.00;4991074;28;45492;-74
2024/01/22 11:03:17;;;;;;;;;4.00;3.00;;;;;11.72;100.00;101331.00;4977883;28;46650;-75
2024/01/22 11:05:46;;;;;;;;;3.00;3.00;;;;;11.51;100.00;101281.91;4984965;28;45557;-75
2024/01/22 11:08:13;;;;;;;;;1.00;0.00;;;;;11.53;100.00;101295.16;4996534;28;45245;-74
2024/01/22 11:10:43;;;;;;;;;15.33;9.33;;;;;11.59;100.00;101303.25;4994478;28;45459;-74
2024/01/22 11:13:09;;;;;;;;;3.00;1.00;;;;;11.55;100.00;101290.81;4995453;28;45566;-75